createdAt,value
2022-10-17T00:00:58.806Z,102035.03
2022-10-17T00:03:26.301Z,102030.84
2022-10-17T00:05:53.656Z,102032.97
2022-10-17T00:08:21.714Z,102038.13
2022-10-17T00:10:57.710Z,102038.78
2022-10-17T00:13:25.238Z,102039.78
2022-10-17T00:15:52.833Z,102042.69
2022-10-17T00:18:20.641Z,102047.34
2022-10-17T00:20:48.052Z,102044.16
2022-10-17T00:23:17.825Z,102049.66
2022-10-17T00:25:45.243Z,102053.88
2022-10-17T00:28:14.075Z,102047.41
2022-10-17T00:30:41.498Z,102055.63
2022-10-17T00:33:08.896Z,102058.22
2022-10-17T00:35:36.469Z,102060.81
2022-10-17T00:38:04.744Z,102057.59
2022-10-17T00:40:32.234Z,102060.16
2022-10-17T00:42:59.494Z,102057.91
2022-10-17T00:45:29.955Z,102066.97
2022-10-17T00:48:08.465Z,102064.03
2022-10-17T00:50:38.748Z,102066.63
2022-10-17T00:53:08.100Z,102058.25
2022-10-17T00:55:42.268Z,102064.38
2022-10-17T00:58:09.812Z,102062.56
2022-10-17T01:00:37.396Z,102069.84
2022-10-17T01:03:05.106Z,102070.00
2022-10-17T01:05:32.539Z,102059.81
2022-10-17T01:08:00.671Z,102058.84
2022-10-17T01:10:34.969Z,102069.19
2022-10-17T01:13:12.534Z,102066.78
2022-10-17T01:16:11.646Z,102060.97
2022-10-17T01:19:14.185Z,102054.50
2022-10-17T01:22:43.310Z,102059.69
2022-10-17T01:25:58.658Z,102058.25
2022-10-17T01:28:26.181Z,102052.41
2022-10-17T01:31:23.597Z,102046.28
2022-10-17T01:34:02.801Z,102050.00
2022-10-17T01:37:01.197Z,102054.03
2022-10-17T01:39:30.065Z,102054.66
2022-10-17T01:42:17.110Z,102050.59
2022-10-17T01:44:58.406Z,102059.50
2022-10-17T01:47:29.520Z,102058.88
2022-10-17T01:50:03.218Z,102051.91
2022-10-17T01:52:38.917Z,102052.09
2022-10-17T01:55:09.096Z,102054.03
2022-10-17T01:57:45.159Z,102047.44
2022-10-17T02:00:19.024Z,102044.69
2022-10-17T02:03:04.346Z,102045.00
2022-10-17T02:05:37.537Z,102050.97
2022-10-17T02:08:05.707Z,102040.31
2022-10-17T02:11:06.181Z,102041.44
2022-10-17T02:14:01.641Z,102036.41
2022-10-17T02:16:38.802Z,102032.88
2022-10-17T02:19:36.770Z,102035.78
2022-10-17T02:22:30.155Z,102028.16
2022-10-17T02:25:21.796Z,102031.25
2022-10-17T02:28:15.751Z,102027.69
2022-10-17T02:30:50.501Z,102027.38
2022-10-17T02:33:43.784Z,102029.50
2022-10-17T02:36:20.558Z,102023.84
2022-10-17T02:38:50.132Z,102024.63
2022-10-17T02:41:21.431Z,102028.38
2022-10-17T02:43:50.614Z,102025.09
2022-10-17T02:46:22.787Z,102025.59
2022-10-17T02:49:03.627Z,102024.97
2022-10-17T02:51:45.233Z,102025.44
2022-10-17T02:54:20.410Z,102021.41
2022-10-17T02:56:59.170Z,102025.13
2022-10-17T02:59:30.671Z,102033.66
2022-10-17T03:01:58.206Z,102035.78
2022-10-17T03:04:25.640Z,102044.97
2022-10-17T03:06:53.057Z,102035.78
2022-10-17T03:09:20.466Z,102049.50
2022-10-17T03:11:47.824Z,102050.31
2022-10-17T03:14:17.836Z,102047.06
2022-10-17T03:16:45.514Z,102049.97
2022-10-17T03:19:13.835Z,102049.50
2022-10-17T03:21:41.399Z,102054.81
2022-10-17T03:24:08.799Z,102052.53
2022-10-17T03:26:38.475Z,102049.66
2022-10-17T03:29:07.456Z,102056.59
2022-10-17T03:31:36.226Z,102056.91
2022-10-17T03:34:04.543Z,102060.81
2022-10-17T03:36:34.579Z,102053.81
2022-10-17T03:39:02.381Z,102071.59
2022-10-17T03:41:30.085Z,102072.75
2022-10-17T03:43:57.439Z,102071.13
2022-10-17T03:46:25.354Z,102078.22
2022-10-17T03:48:57.293Z,102079.50
2022-10-17T03:51:25.229Z,102075.78
2022-10-17T03:53:58.936Z,102072.06
2022-10-17T03:56:26.938Z,102086.75
2022-10-17T03:58:59.749Z,102081.59
2022-10-17T04:01:28.511Z,102087.25
2022-10-17T04:03:57.619Z,102086.09
2022-10-17T04:06:27.940Z,102090.44
2022-10-17T04:08:59.087Z,102098.84
2022-10-17T04:11:55.418Z,102085.44
2022-10-17T04:14:23.470Z,102095.78
2022-10-17T04:16:51.744Z,102086.84
2022-10-17T04:19:21.336Z,102076.38
2022-10-17T04:21:50.322Z,102099.78
2022-10-17T04:24:18.352Z,102097.81
2022-10-17T04:27:15.070Z,102104.44
2022-10-17T04:29:45.691Z,102110.13
2022-10-17T04:32:20.410Z,102109.47
2022-10-17T04:35:04.879Z,102100.41
2022-10-17T04:37:32.805Z,102109.94
2022-10-17T04:40:04.116Z,102112.19
2022-10-17T04:42:33.005Z,102116.22
2022-10-17T04:45:00.455Z,102126.06
2022-10-17T04:47:28.302Z,102124.97
2022-10-17T04:49:56.545Z,102126.72
2022-10-17T04:52:25.181Z,102125.44
2022-10-17T04:54:53.548Z,102124.31
2022-10-17T04:57:21.705Z,102123.53
2022-10-17T04:59:59.372Z,102128.06
2022-10-17T05:05:32.424Z,102134.16
2022-10-17T05:08:00.752Z,102140.13
2022-10-17T05:10:35.933Z,102138.16
2022-10-17T05:13:04.953Z,102138.53
2022-10-17T05:15:33.866Z,102147.38
2022-10-17T05:18:02.802Z,102149.78
2022-10-17T05:20:31.028Z,102142.97
2022-10-17T05:23:02.156Z,102142.34
2022-10-17T05:25:34.876Z,102141.03
2022-10-17T05:28:02.330Z,102146.56
2022-10-17T05:30:33.709Z,102148.97
2022-10-17T05:33:05.061Z,102151.59
2022-10-17T05:35:32.910Z,102147.25
2022-10-17T05:38:00.596Z,102150.81
2022-10-17T05:40:28.606Z,102148.69
2022-10-17T05:42:55.976Z,102167.41
2022-10-17T05:45:24.533Z,102160.34
2022-10-17T05:47:52.101Z,102161.25
2022-10-17T05:50:21.983Z,102161.69
2022-10-17T05:53:18.460Z,102175.03
2022-10-17T05:55:56.399Z,102178.22
2022-10-17T05:58:45.577Z,102179.72
2022-10-17T06:01:18.803Z,102198.25
2022-10-17T06:03:46.229Z,102199.44
2022-10-17T06:06:14.897Z,102201.72
2022-10-17T06:08:45.154Z,102201.78
2022-10-17T06:11:16.137Z,102206.66
2022-10-17T06:13:43.551Z,102208.97
2022-10-17T06:16:16.263Z,102210.41
2022-10-17T06:18:45.006Z,102214.88
2022-10-17T06:21:17.094Z,102216.22
2022-10-17T06:23:47.340Z,102216.53
2022-10-17T06:26:19.849Z,102226.09
2022-10-17T06:28:47.441Z,102229.31
2022-10-17T06:31:16.950Z,102240.88
2022-10-17T06:33:44.441Z,102239.28
2022-10-17T06:36:15.341Z,102235.13
2022-10-17T06:38:43.761Z,102238.59
2022-10-17T06:41:20.222Z,102244.41
2022-10-17T06:43:47.867Z,102243.63
2022-10-17T06:46:40.466Z,102243.00
2022-10-17T06:49:10.453Z,102253.03
2022-10-17T06:51:52.365Z,102252.38
2022-10-17T06:54:23.972Z,102257.41
2022-10-17T06:57:10.522Z,102264.19
2022-10-17T06:59:50.503Z,102256.94
2022-10-17T07:02:28.361Z,102259.03
2022-10-17T07:04:57.859Z,102264.03
2022-10-17T07:07:25.266Z,102265.50
2022-10-17T07:09:53.620Z,102266.63
2022-10-17T07:12:21.290Z,102270.50
2022-10-17T07:14:50.702Z,102273.25
2022-10-17T07:17:20.712Z,102273.25
2022-10-17T07:19:48.647Z,102269.03
2022-10-17T07:22:16.022Z,102280.03
2022-10-17T07:24:47.337Z,102277.13
2022-10-17T07:27:20.172Z,102275.66
2022-10-17T07:29:48.190Z,102275.97
2022-10-17T07:32:33.712Z,102276.84
2022-10-17T07:35:01.460Z,102279.25
2022-10-17T07:37:30.154Z,102274.63
2022-10-17T07:40:00.888Z,102268.97
2022-10-17T07:42:28.664Z,102273.34
2022-10-17T07:44:56.094Z,102269.91
2022-10-17T07:47:24.310Z,102264.72
2022-10-17T07:49:53.000Z,102271.88
2022-10-17T07:52:20.594Z,102270.19
2022-10-17T07:54:47.926Z,102275.13
2022-10-17T07:57:15.277Z,102276.88
2022-10-17T07:59:42.687Z,102275.22
2022-10-17T08:02:22.590Z,102272.97
2022-10-17T08:04:51.599Z,102271.16
2022-10-17T08:07:23.206Z,102271.50
2022-10-17T08:09:52.815Z,102269.47
2022-10-17T08:12:20.479Z,102261.09
2022-10-17T08:14:48.221Z,102267.16
2022-10-17T08:17:15.581Z,102261.09
2022-10-17T08:19:42.938Z,102257.75
2022-10-17T08:22:10.275Z,102258.34
2022-10-17T08:24:37.994Z,102270.22
2022-10-17T08:27:11.419Z,102263.84
2022-10-17T08:29:40.050Z,102263.34
2022-10-17T08:32:09.930Z,102263.53
2022-10-17T08:34:37.648Z,102269.81
2022-10-17T08:37:05.104Z,102268.44
2022-10-17T08:39:32.494Z,102262.81
2022-10-17T08:42:05.779Z,102271.13
2022-10-17T08:44:43.160Z,102261.72
2022-10-17T08:47:15.673Z,102265.75
2022-10-17T08:49:48.525Z,102264.50
2022-10-17T08:52:56.500Z,102259.31
2022-10-17T08:55:42.831Z,102263.41
2022-10-17T08:58:34.112Z,102262.66
2022-10-17T09:01:13.692Z,102254.91
2022-10-17T09:03:47.151Z,102267.84
2022-10-17T09:06:14.443Z,102259.59
2022-10-17T09:08:46.711Z,102265.47
2022-10-17T09:11:56.209Z,102264.56
2022-10-17T09:14:52.121Z,102250.72
2022-10-17T09:17:43.949Z,102256.72
2022-10-17T09:20:20.838Z,102269.28
2022-10-17T09:25:39.680Z,102259.19
2022-10-17T09:28:13.942Z,102260.53
2022-10-17T09:30:47.512Z,102260.16
2022-10-17T09:33:34.746Z,102259.75
2022-10-17T09:36:17.386Z,102262.81
2022-10-17T09:38:48.808Z,102262.53
2022-10-17T09:41:43.545Z,102262.06
2022-10-17T09:44:16.836Z,102262.50
2022-10-17T09:47:00.444Z,102264.84
2022-10-17T09:49:37.109Z,102263.41
2022-10-17T09:52:09.670Z,102264.09
2022-10-17T09:54:57.063Z,102258.72
2022-10-17T09:57:25.504Z,102270.91
2022-10-17T10:00:02.460Z,102265.72
2022-10-17T10:02:32.402Z,102270.44
2022-10-17T10:05:18.921Z,102261.75
2022-10-17T10:08:03.535Z,102264.06
2022-10-17T10:10:32.176Z,102260.25
2022-10-17T10:13:04.824Z,102263.75
2022-10-17T10:15:44.000Z,102266.94
2022-10-17T10:21:10.247Z,102262.75
2022-10-17T10:23:42.827Z,102264.03
2022-10-17T10:26:25.593Z,102258.03
2022-10-17T10:28:59.900Z,102259.72
2022-10-17T10:31:31.379Z,102262.41
2022-10-17T10:34:02.320Z,102258.41
2022-10-17T10:37:24.310Z,102258.50
2022-10-17T10:40:01.051Z,102263.38
2022-10-17T10:42:30.753Z,102259.72
2022-10-17T10:45:03.951Z,102253.25
2022-10-17T10:47:33.036Z,102252.25
2022-10-17T10:50:24.232Z,102249.03
2022-10-17T10:53:22.504Z,102259.03
2022-10-17T10:55:56.854Z,102251.97
2022-10-17T10:58:50.538Z,102251.78
2022-10-17T11:01:39.053Z,102252.19
2022-10-17T11:04:19.904Z,102255.25
2022-10-17T11:06:50.399Z,102248.38
2022-10-17T11:09:33.863Z,102247.72
2022-10-17T11:12:46.501Z,102246.34
2022-10-17T11:15:26.032Z,102247.69
2022-10-17T11:18:06.860Z,102249.38
2022-10-17T11:21:00.171Z,102239.50
2022-10-17T11:23:44.875Z,102239.00
2022-10-17T11:26:26.911Z,102237.81
2022-10-17T11:28:55.480Z,102237.88
2022-10-17T11:31:31.724Z,102229.91
2022-10-17T11:34:10.847Z,102226.94
2022-10-17T11:36:41.923Z,102221.19
2022-10-17T11:39:20.553Z,102225.78
2022-10-17T11:42:22.333Z,102222.44
2022-10-17T11:44:52.450Z,102220.53
2022-10-17T11:47:38.279Z,102214.91
2022-10-17T11:53:19.717Z,102208.56
2022-10-17T11:55:47.878Z,102209.28
2022-10-17T11:58:30.657Z,102205.13
2022-10-17T12:01:32.905Z,102205.31
2022-10-17T12:04:18.371Z,102201.63
2022-10-17T12:07:17.508Z,102202.66
2022-10-17T12:09:50.596Z,102208.09
2022-10-17T12:12:33.381Z,102204.75
2022-10-17T12:15:12.827Z,102204.34
2022-10-17T12:17:45.892Z,102202.03
2022-10-17T12:20:25.449Z,102196.25
2022-10-17T12:23:20.164Z,102203.00
2022-10-17T12:26:25.333Z,102191.88
2022-10-17T12:28:53.148Z,102195.63
2022-10-17T12:31:21.774Z,102201.16
2022-10-17T12:33:50.751Z,102197.03
2022-10-17T12:36:22.565Z,102197.91
2022-10-17T12:39:14.574Z,102191.88
2022-10-17T12:41:42.526Z,102196.19
2022-10-17T12:44:12.833Z,102188.94
2022-10-17T12:46:56.718Z,102184.84
2022-10-17T12:49:43.922Z,102183.72
2022-10-17T12:52:11.325Z,102185.72
2022-10-17T12:54:48.043Z,102182.06
2022-10-17T12:57:41.146Z,102183.06
2022-10-17T13:00:19.991Z,102181.03
2022-10-17T13:02:49.174Z,102177.22
2022-10-17T13:05:38.130Z,102176.72
2022-10-17T13:08:13.317Z,102170.38
2022-10-17T13:10:43.207Z,102167.38
2022-10-17T13:13:15.911Z,102158.50
2022-10-17T13:15:47.077Z,102166.94
2022-10-17T13:18:26.940Z,102162.16
2022-10-17T13:21:03.899Z,102165.38
2022-10-17T13:23:34.824Z,102162.09
2022-10-17T13:26:06.321Z,102163.72
2022-10-17T13:28:38.426Z,102160.56
2022-10-17T13:31:08.138Z,102155.88
2022-10-17T13:33:40.319Z,102159.22
2022-10-17T13:36:15.724Z,102151.84
2022-10-17T13:38:43.380Z,102158.31
2022-10-17T13:41:34.672Z,102160.19
2022-10-17T13:44:07.362Z,102157.72
2022-10-17T13:46:38.432Z,102155.16
2022-10-17T13:49:32.648Z,102151.38
2022-10-17T13:52:02.465Z,102146.25
2022-10-17T13:54:43.762Z,102152.16
2022-10-17T13:57:18.891Z,102148.53
2022-10-17T13:59:50.364Z,102146.44
2022-10-17T14:02:22.868Z,102147.28
2022-10-17T14:05:19.195Z,102137.38
2022-10-17T14:08:11.202Z,102139.69
2022-10-17T14:10:44.015Z,102139.97
2022-10-17T14:13:28.204Z,102141.63
2022-10-17T14:15:59.528Z,102135.25
2022-10-17T14:18:36.803Z,102129.50
2022-10-17T14:24:28.669Z,102125.50
2022-10-17T14:27:01.377Z,102134.28
2022-10-17T14:29:31.894Z,102126.22
2022-10-17T14:32:06.326Z,102127.53
2022-10-17T14:34:37.017Z,102123.09
2022-10-17T14:37:32.225Z,102131.03
2022-10-17T14:40:01.328Z,102128.09
2022-10-17T14:42:29.198Z,102135.50
2022-10-17T14:45:06.165Z,102138.72
2022-10-17T14:47:49.584Z,102132.69
2022-10-17T14:50:26.379Z,102139.09
2022-10-17T14:53:07.617Z,102136.53
2022-10-17T14:55:36.609Z,102134.09
2022-10-17T14:58:25.514Z,102131.78
2022-10-17T15:00:52.929Z,102134.94
2022-10-17T15:03:20.382Z,102132.50
2022-10-17T15:05:49.209Z,102135.63
2022-10-17T15:08:21.690Z,102133.94
2022-10-17T15:10:50.533Z,102136.00
2022-10-17T15:13:39.984Z,102131.94
2022-10-17T15:16:19.470Z,102139.78
2022-10-17T15:18:46.895Z,102130.56
2022-10-17T15:21:26.261Z,102142.59
2022-10-17T15:24:01.794Z,102141.00
2022-10-17T15:26:34.139Z,102135.28
2022-10-17T15:29:01.817Z,102133.19
2022-10-17T15:31:31.537Z,102132.44
2022-10-17T15:33:58.969Z,102136.47
2022-10-17T15:36:48.297Z,102134.50
2022-10-17T15:39:15.827Z,102130.91
2022-10-17T15:41:43.203Z,102132.75
2022-10-17T15:44:10.594Z,102133.03
2022-10-17T15:46:41.287Z,102125.97
2022-10-17T15:49:14.760Z,102134.09
2022-10-17T15:51:42.110Z,102130.94
2022-10-17T15:54:09.648Z,102124.09
2022-10-17T15:56:40.623Z,102130.06
2022-10-17T15:59:13.009Z,102138.25
2022-10-17T16:01:41.149Z,102134.44
2022-10-17T16:04:15.105Z,102137.06
2022-10-17T16:06:43.102Z,102134.28
2022-10-17T16:09:10.867Z,102141.28
2022-10-17T16:11:41.078Z,102146.16
2022-10-17T16:14:12.918Z,102152.63
2022-10-17T16:16:40.666Z,102144.63
2022-10-17T16:19:10.151Z,102145.25
2022-10-17T16:21:40.113Z,102140.44
2022-10-17T16:24:11.213Z,102143.06
2022-10-17T16:26:39.472Z,102144.66
2022-10-17T16:29:06.909Z,102152.16
2022-10-17T16:31:36.526Z,102154.03
2022-10-17T16:34:06.452Z,102154.28
2022-10-17T16:36:33.828Z,102149.56
2022-10-17T16:39:01.190Z,102153.91
2022-10-17T16:41:30.778Z,102145.38
2022-10-17T16:44:00.484Z,102156.72
2022-10-17T16:46:29.479Z,102155.13
2022-10-17T16:48:57.052Z,102163.00
2022-10-17T16:51:25.418Z,102153.78
2022-10-17T16:53:54.517Z,102160.03
2022-10-17T16:56:26.502Z,102156.63
2022-10-17T16:58:53.693Z,102168.44
2022-10-17T17:01:23.315Z,102166.28
2022-10-17T17:03:52.285Z,102166.91
2022-10-17T17:06:22.412Z,102162.44
2022-10-17T17:08:50.753Z,102161.19
2022-10-17T17:11:21.016Z,102158.59
2022-10-17T17:13:48.673Z,102167.25
2022-10-17T17:16:22.645Z,102173.13
2022-10-17T17:18:54.569Z,102171.34
2022-10-17T17:21:21.866Z,102168.81
2022-10-17T17:23:49.475Z,102172.25
2022-10-17T17:26:19.765Z,102173.31
2022-10-17T17:28:49.367Z,102178.56
2022-10-17T17:31:19.580Z,102172.59
2022-10-17T17:33:47.110Z,102170.97
2022-10-17T17:36:19.180Z,102170.63
2022-10-17T17:38:47.478Z,102170.34
2022-10-17T17:41:17.650Z,102169.75
2022-10-17T17:43:47.430Z,102169.13
2022-10-17T17:46:19.292Z,102170.28
2022-10-17T17:48:47.955Z,102166.53
2022-10-17T17:51:18.289Z,102169.75
2022-10-17T17:53:45.896Z,102165.88
2022-10-17T17:56:16.364Z,102160.91
2022-10-17T17:58:45.847Z,102168.63
2022-10-17T18:01:21.522Z,102163.91
2022-10-17T18:03:50.727Z,102166.66
2022-10-17T18:06:19.023Z,102164.38
2022-10-17T18:08:52.032Z,102182.31
2022-10-17T18:11:21.968Z,102183.00
2022-10-17T18:14:23.687Z,102179.56
2022-10-17T18:16:51.194Z,102181.50
2022-10-17T18:19:22.838Z,102179.91
2022-10-17T18:21:50.286Z,102188.28
2022-10-17T18:24:17.606Z,102182.75
2022-10-17T18:26:44.960Z,102174.59
2022-10-17T18:29:12.852Z,102179.97
2022-10-17T18:31:40.577Z,102181.38
2022-10-17T18:34:07.999Z,102184.69
2022-10-17T18:36:37.193Z,102192.25
2022-10-17T18:39:05.406Z,102194.53
2022-10-17T18:41:33.662Z,102190.97
2022-10-17T18:44:05.239Z,102202.56
2022-10-17T18:46:40.590Z,102201.09
2022-10-17T18:49:18.951Z,102198.13
2022-10-17T18:51:46.860Z,102203.66
2022-10-17T18:54:17.188Z,102207.34
2022-10-17T18:56:45.072Z,102206.53
2022-10-17T18:59:12.405Z,102207.81
2022-10-17T19:01:39.801Z,102201.72
2022-10-17T19:04:07.155Z,102196.09
2022-10-17T19:06:34.580Z,102201.66
2022-10-17T19:09:04.473Z,102197.13
2022-10-17T19:11:33.550Z,102202.97
2022-10-17T19:14:08.179Z,102204.09
2022-10-17T19:16:37.215Z,102205.81
2022-10-17T19:19:08.258Z,102209.97
2022-10-17T19:21:35.647Z,102212.94
2022-10-17T19:24:05.972Z,102208.09
2022-10-17T19:26:36.071Z,102214.03
2022-10-17T19:29:04.826Z,102215.16
2022-10-17T19:31:34.816Z,102226.91
2022-10-17T19:34:02.666Z,102225.25
2022-10-17T19:36:33.377Z,102222.50
2022-10-17T19:39:07.594Z,102227.91
2022-10-17T19:41:36.372Z,102226.81
2022-10-17T19:44:03.711Z,102213.84
2022-10-17T19:46:35.032Z,102218.09
2022-10-17T19:49:03.441Z,102227.34
2022-10-17T19:51:31.139Z,102222.91
2022-10-17T19:54:00.536Z,102218.75
2022-10-17T19:56:33.725Z,102216.00
2022-10-17T19:59:01.672Z,102214.66
2022-10-17T20:01:33.400Z,102209.00
2022-10-17T20:04:01.342Z,102207.13
2022-10-17T20:06:28.727Z,102216.19
2022-10-17T20:08:56.416Z,102207.59
2022-10-17T20:11:26.255Z,102208.28
2022-10-17T20:13:54.991Z,102195.97
2022-10-17T20:16:25.622Z,102204.69
2022-10-17T20:18:56.454Z,102205.56
2022-10-17T20:21:35.052Z,102203.97
2022-10-17T20:24:04.543Z,102209.06
2022-10-17T20:26:38.328Z,102205.34
2022-10-17T20:29:18.022Z,102205.44
2022-10-17T20:31:46.680Z,102201.81
2022-10-17T20:34:15.236Z,102205.22
2022-10-17T20:36:42.623Z,102201.38
2022-10-17T20:39:12.769Z,102211.91
2022-10-17T20:41:40.818Z,102215.50
2022-10-17T20:44:08.482Z,102211.09
2022-10-17T20:46:39.739Z,102212.09
2022-10-17T20:49:17.438Z,102219.09
2022-10-17T20:51:45.416Z,102218.47
2022-10-17T20:54:13.214Z,102229.03
2022-10-17T20:56:40.597Z,102221.31
2022-10-17T20:59:12.698Z,102234.22
2022-10-17T21:01:40.474Z,102236.16
2022-10-17T21:04:33.759Z,102234.03
2022-10-17T21:06:55.317Z,102228.91
2022-10-17T21:09:22.910Z,102238.13
2022-10-17T21:11:54.190Z,102232.97
2022-10-17T21:14:23.091Z,102231.97
2022-10-17T21:16:52.269Z,102221.63
2022-10-17T21:19:19.790Z,102233.59
2022-10-17T21:21:47.825Z,102230.66
2022-10-17T21:24:20.815Z,102225.31
2022-10-17T21:26:53.508Z,102222.06
2022-10-17T21:29:22.050Z,102227.72
2022-10-17T21:31:49.741Z,102227.09
2022-10-17T21:34:23.952Z,102226.28
2022-10-17T21:36:51.850Z,102231.75
2022-10-17T21:39:19.781Z,102229.00
2022-10-17T21:41:48.319Z,102226.56
2022-10-17T21:44:18.179Z,102223.81
2022-10-17T21:46:46.793Z,102223.34
2022-10-17T21:49:17.284Z,102219.81
2022-10-17T21:51:48.594Z,102219.53
2022-10-17T21:54:17.982Z,102219.06
2022-10-17T21:56:45.292Z,102223.63
2022-10-17T21:59:12.856Z,102222.31
2022-10-17T22:01:42.671Z,102216.97
2022-10-17T22:04:14.861Z,102218.75
2022-10-17T22:06:44.781Z,102216.81
2022-10-17T22:09:19.969Z,102209.38
2022-10-17T22:11:51.411Z,102211.16
2022-10-17T22:14:21.549Z,102202.91
2022-10-17T22:16:49.696Z,102206.66
2022-10-17T22:19:21.193Z,102206.97
2022-10-17T22:21:49.539Z,102200.22
2022-10-17T22:24:18.815Z,102201.19
2022-10-17T22:26:47.263Z,102208.63
2022-10-17T22:29:15.243Z,102201.19
2022-10-17T22:31:43.030Z,102205.19
2022-10-17T22:34:13.437Z,102211.03
2022-10-17T22:36:41.773Z,102206.34
2022-10-17T22:39:09.948Z,102207.47
2022-10-17T22:41:37.339Z,102205.38
2022-10-17T22:44:04.832Z,102212.13
2022-10-17T22:46:32.263Z,102205.03
2022-10-17T22:48:59.606Z,102200.69
2022-10-17T22:51:27.113Z,102200.34
2022-10-17T22:53:54.578Z,102208.75
2022-10-17T22:56:23.016Z,102217.66
2022-10-17T22:58:50.881Z,102210.06
2022-10-17T23:01:21.078Z,102204.56
2022-10-17T23:03:50.921Z,102200.66
2022-10-17T23:06:19.409Z,102203.28
2022-10-17T23:08:47.336Z,102204.56
2022-10-17T23:11:14.758Z,102202.44
2022-10-17T23:13:42.163Z,102201.34
2022-10-17T23:16:11.090Z,102205.53
2022-10-17T23:18:39.472Z,102203.28
2022-10-17T23:21:07.894Z,102205.84
2022-10-17T23:23:36.300Z,102205.88
2022-10-17T23:26:08.746Z,102198.59
2022-10-17T23:28:36.505Z,102202.28
2022-10-17T23:31:18.311Z,102197.59
2022-10-17T23:33:48.169Z,102195.03
2022-10-17T23:36:18.333Z,102178.72
2022-10-17T23:38:46.760Z,102195.38
2022-10-17T23:41:29.152Z,102187.13
2022-10-17T23:43:56.588Z,102188.41
2022-10-17T23:46:24.161Z,102187.44
2022-10-17T23:48:51.719Z,102191.00
2022-10-17T23:51:19.821Z,102186.94
2022-10-17T23:53:50.287Z,102189.19
2022-10-17T23:56:17.826Z,102183.06
2022-10-17T23:58:45.187Z,102183.06
